Terminal Aerodrome Forecast
Issued by NWS Goodland, KS

Home | Current Version | Previous Version | Text Only | Print | Product List | Glossary Off
Versions: 1 2 3 4 5 6 7 8 9 10 11 12 13 14 15 16 17 18 19 20 21 22 23 24 25

000
FTUS43 KGLD 251807 AAA
TAFGLD
TAF AMD
KGLD 251807Z 2518/2618 30015G21KT P6SM FEW230
     FM252100 30010KT P6SM SCT230
     FM260000 VRB06KT P6SM SCT100 SCT230
     FM261200 30006KT P6SM SKC
     FM261700 33007KT P6SM SKC=

USA.gov is the U.S. government's official web portal to all federal, state and local government web resources and services.